sensor_id;sensor_type;location;lat;lon;timestamp;pressure;altitude;pressure_sealevel;temperature;humidity
42621;BME280;28252;53.336;-6.298;2023-05-19T00:00:10;102353.41;;;23.04;100.00
42621;BME280;28252;53.336;-6.298;2023-05-19T00:00:47;102358.84;;;23.04;100.00
42621;BME280;28252;53.336;-6.298;2023-05-19T00:01:21;102355.25;;;23.03;100.00
42621;BME280;28252;53.336;-6.298;2023-05-19T00:01:59;102358.84;;;23.04;100.00
42621;BME280;28252;53.336;-6.298;2023-05-19T00:02:38;102360.66;;;23.03;100.00
42621;BME280;28252;53.336;-6.298;2023-05-19T00:03:09;102354.38;;;23.03;100.00
42621;BME280;28252;53.336;-6.298;2023-05-19T00:03:54;102349.81;;;23.03;100.00
42621;BME280;28252;53.336;-6.298;2023-05-19T00:04:27;102354.38;;;23.03;100.00
42621;BME280;28252;53.336;-6.298;2023-05-19T00:05:02;102355.25;;;23.03;100.00
42621;BME280;28252;53.336;-6.298;2023-05-19T00:05:34;102363.53;;;23.02;100.00
42621;BME280;28252;53.336;-6.298;2023-05-19T00:06:09;102352.66;;;23.02;100.00
42621;BME280;28252;53.336;-6.298;2023-05-19T00:06:40;102353.53;;;23.02;100.00
42621;BME280;28252;53.336;-6.298;2023-05-19T00:07:15;102358.97;;;23.02;100.00
42621;BME280;28252;53.336;-6.298;2023-05-19T00:07:47;102364.41;;;23.02;100.00
42621;BME280;28252;53.336;-6.298;2023-05-19T00:08:22;102367.97;;;23.03;100.00
42621;BME280;28252;53.336;-6.298;2023-05-19T00:08:58;102363.53;;;23.02;100.00
42621;BME280;28252;53.336;-6.298;2023-05-19T00:09:36;102362.69;;;23.01;100.00
42621;BME280;28252;53.336;-6.298;2023-05-19T00:10:10;102361.84;;;23.01;100.00
42621;BME280;28252;53.336;-6.298;2023-05-19T00:10:46;102364.56;;;23.01;100.00
42621;BME280;28252;53.336;-6.298;2023-05-19T00:11:19;102363.53;;;23.02;100.00
42621;BME280;28252;53.336;-6.298;2023-05-19T00:11:54;102365.56;;;23.00;100.00
42621;BME280;28252;53.336;-6.298;2023-05-19T00:12:26;102367.28;;;23.01;100.00
42621;BME280;28252;53.336;-6.298;2023-05-19T00:12:57;102365.56;;;23.00;100.00
42621;BME280;28252;53.336;-6.298;2023-05-19T00:13:34;102363.88;;;22.99;100.00
42621;BME280;28252;53.336;-6.298;2023-05-19T00:14:08;102360.13;;;23.00;100.00
42621;BME280;28252;53.336;-6.298;2023-05-19T00:14:47;102367.28;;;23.01;100.00
42621;BME280;28252;53.336;-6.298;2023-05-19T00:15:21;102358.44;;;22.99;100.00
42621;BME280;28252;53.336;-6.298;2023-05-19T00:17:07;102360.13;;;23.00;100.00
42621;BME280;28252;53.336;-6.298;2023-05-19T00:17:45;102370.16;;;22.99;100.00
42621;BME280;28252;53.336;-6.298;2023-05-19T00:18:18;102362.97;;;22.98;100.00
42621;BME280;28252;53.336;-6.298;2023-05-19T00:18:56;102353.00;;;22.99;100.00
42621;BME280;28252;53.336;-6.298;2023-05-19T00:19:29;102369.28;;;22.99;100.00
42621;BME280;28252;53.336;-6.298;2023-05-19T00:20:04;102361.16;;;22.99;100.00
42621;BME280;28252;53.336;-6.298;2023-05-19T00:20:37;102361.28;;;22.97;100.00
42621;BME280;28252;53.336;-6.298;2023-05-19T00:21:10;102368.41;;;22.98;100.00
42621;BME280;28252;53.336;-6.298;2023-05-19T00:21:43;102364.84;;;22.98;100.00
42621;BME280;28252;53.336;-6.298;2023-05-19T00:22:16;102367.56;;;22.98;100.00
42621;BME280;28252;53.336;-6.298;2023-05-19T00:22:52;102365.84;;;22.97;100.00
42621;BME280;28252;53.336;-6.298;2023-05-19T00:23:23;102363.13;;;22.97;100.00
42621;BME280;28252;53.336;-6.298;2023-05-19T00:24:04;102365.84;;;22.97;100.00
42621;BME280;28252;53.336;-6.298;2023-05-19T00:24:38;102364.16;;;22.96;100.00
42621;BME280;28252;53.336;-6.298;2023-05-19T00:29:17;102361.59;;;22.94;100.00
42621;BME280;28252;53.336;-6.298;2023-05-19T00:29:54;102365.28;;;22.93;100.00
42621;BME280;28252;53.336;-6.298;2023-05-19T00:30:27;102370.72;;;22.93;100.00
42621;BME280;28252;53.336;-6.298;2023-05-19T00:31:01;102360.72;;;22.93;100.00
42621;BME280;28252;53.336;-6.298;2023-05-19T00:31:35;102363.44;;;22.93;100.00
42621;BME280;28252;53.336;-6.298;2023-05-19T00:32:08;102365.44;;;22.91;100.00
42621;BME280;28252;53.336;-6.298;2023-05-19T00:32:39;102367.16;;;22.92;100.00
42621;BME280;28252;53.336;-6.298;2023-05-19T00:33:14;102365.44;;;22.91;100.00
42621;BME280;28252;53.336;-6.298;2023-05-19T00:34:23;102373.59;;;22.91;100.00
42621;BME280;28252;53.336;-6.298;2023-05-19T00:34:54;102368.16;;;22.91;100.00
42621;BME280;28252;53.336;-6.298;2023-05-19T00:35:28;102370.88;;;22.91;100.00
42621;BME280;28252;53.336;-6.298;2023-05-19T00:36:04;102376.31;;;22.91;100.00
42621;BME280;28252;53.336;-6.298;2023-05-19T00:36:35;102378.88;;;22.93;100.00
42621;BME280;28252;53.336;-6.298;2023-05-19T00:37:06;102373.59;;;22.91;100.00
42621;BME280;28252;53.336;-6.298;2023-05-19T00:38:10;102375.44;;;22.91;100.00
42621;BME280;28252;53.336;-6.298;2023-05-19T00:38:41;102383.47;;;22.92;100.00
42621;BME280;28252;53.336;-6.298;2023-05-19T00:39:14;102377.31;;;22.90;100.00
42621;BME280;28252;53.336;-6.298;2023-05-19T00:39:47;102379.00;;;22.91;100.00
42621;BME280;28252;53.336;-6.298;2023-05-19T00:40:53;102380.03;;;22.90;100.00
42621;BME280;28252;53.336;-6.298;2023-05-19T00:41:27;102380.03;;;22.90;100.00
42621;BME280;28252;53.336;-6.298;2023-05-19T00:42:00;102379.16;;;22.90;100.00
42621;BME280;28252;53.336;-6.298;2023-05-19T00:42:32;102382.75;;;22.90;100.00
42621;BME280;28252;53.336;-6.298;2023-05-19T00:44:26;102381.03;;;22.89;100.00
42621;BME280;28252;53.336;-6.298;2023-05-19T00:44:57;102382.75;;;22.90;100.00
42621;BME280;28252;53.336;-6.298;2023-05-19T00:45:30;102381.03;;;22.89;100.00
42621;BME280;28252;53.336;-6.298;2023-05-19T00:46:06;102377.47;;;22.89;100.00
42621;BME280;28252;53.336;-6.298;2023-05-19T00:46:44;102384.78;;;22.88;100.00
42621;BME280;28252;53.336;-6.298;2023-05-19T00:47:18;102390.22;;;22.88;100.00
42621;BME280;28252;53.336;-6.298;2023-05-19T00:47:51;102381.03;;;22.89;100.00
42621;BME280;28252;53.336;-6.298;2023-05-19T00:48:26;102394.63;;;22.89;100.00
42621;BME280;28252;53.336;-6.298;2023-05-19T00:49:00;102391.06;;;22.89;100.00
42621;BME280;28252;53.336;-6.298;2023-05-19T00:49:35;102392.94;;;22.88;100.00
42621;BME280;28252;53.336;-6.298;2023-05-19T00:50:11;102395.63;;;22.88;100.00
42621;BME280;28252;53.336;-6.298;2023-05-19T00:50:42;102393.91;;;22.87;100.00
42621;BME280;28252;53.336;-6.298;2023-05-19T00:51:15;102396.50;;;22.89;100.00
42621;BME280;28252;53.336;-6.298;2023-05-19T00:51:51;102395.63;;;22.88;100.00
42621;BME280;28252;53.336;-6.298;2023-05-19T00:52:23;102389.31;;;22.88;100.00
42621;BME280;28252;53.336;-6.298;2023-05-19T00:52:56;102391.19;;;22.87;100.00
42621;BME280;28252;53.336;-6.298;2023-05-19T00:53:29;102397.47;;;22.88;100.00
42621;BME280;28252;53.336;-6.298;2023-05-19T00:54:03;102395.78;;;22.87;100.00
42621;BME280;28252;53.336;-6.298;2023-05-19T00:54:37;102403.06;;;22.86;100.00
42621;BME280;28252;53.336;-6.298;2023-05-19T00:55:08;102395.78;;;22.87;100.00
42621;BME280;28252;53.336;-6.298;2023-05-19T00:55:39;102396.63;;;22.87;100.00
42621;BME280;28252;53.336;-6.298;2023-05-19T00:56:10;102396.63;;;22.87;100.00
42621;BME280;28252;53.336;-6.298;2023-05-19T00:56:41;102396.63;;;22.87;100.00
42621;BME280;28252;53.336;-6.298;2023-05-19T00:57:19;102393.06;;;22.87;100.00
42621;BME280;28252;53.336;-6.298;2023-05-19T00:57:56;102400.34;;;22.86;100.00
42621;BME280;28252;53.336;-6.298;2023-05-19T00:58:30;102401.22;;;22.87;100.00
42621;BME280;28252;53.336;-6.298;2023-05-19T00:59:07;102397.63;;;22.86;100.00
42621;BME280;28252;53.336;-6.298;2023-05-19T00:59:38;102403.06;;;22.86;100.00
42621;BME280;28252;53.336;-6.298;2023-05-19T01:00:10;102403.06;;;22.86;100.00
42621;BME280;28252;53.336;-6.298;2023-05-19T01:00:43;102404.94;;;22.86;100.00
42621;BME280;28252;53.336;-6.298;2023-05-19T01:01:20;102403.06;;;22.86;100.00
42621;BME280;28252;53.336;-6.298;2023-05-19T01:01:54;102406.78;;;22.85;100.00
42621;BME280;28252;53.336;-6.298;2023-05-19T01:06:29;102407.09;;;22.82;100.00
42621;BME280;28252;53.336;-6.298;2023-05-19T01:07:04;102416.06;;;22.83;100.00
42621;BME280;28252;53.336;-6.298;2023-05-19T01:07:39;102414.25;;;22.83;100.00
42621;BME280;28252;53.336;-6.298;2023-05-19T01:08:11;102408.81;;;22.83;100.00
42621;BME280;28252;53.336;-6.298;2023-05-19T01:08:46;102412.50;;;22.82;100.00
42621;BME280;28252;53.336;-6.298;2023-05-19T01:09:17;102413.50;;;22.81;100.00
42621;BME280;28252;53.336;-6.298;2023-05-19T01:09:51;102416.06;;;22.83;100.00
42621;BME280;28252;53.336;-6.298;2023-05-19T01:10:25;102412.50;;;22.82;100.00
42621;BME280;28252;53.336;-6.298;2023-05-19T01:10:58;102408.81;;;22.83;100.00
42621;BME280;28252;53.336;-6.298;2023-05-19T01:11:29;102411.66;;;22.82;100.00
42621;BME280;28252;53.336;-6.298;2023-05-19T01:12:03;102419.81;;;22.82;100.00
42621;BME280;28252;53.336;-6.298;2023-05-19T01:12:36;102406.22;;;22.82;100.00
42621;BME280;28252;53.336;-6.298;2023-05-19T01:13:08;102410.78;;;22.81;100.00
42621;BME280;28252;53.336;-6.298;2023-05-19T01:13:44;102415.38;;;22.81;100.00
42621;BME280;28252;53.336;-6.298;2023-05-19T01:14:17;102417.25;;;22.80;100.00
42621;BME280;28252;53.336;-6.298;2023-05-19T01:14:49;102421.66;;;22.81;100.00
42621;BME280;28252;53.336;-6.298;2023-05-19T01:15:20;102414.53;;;22.80;100.00
42621;BME280;28252;53.336;-6.298;2023-05-19T01:16:36;102421.66;;;22.81;100.00
42621;BME280;28252;53.336;-6.298;2023-05-19T01:17:15;102419.97;;;22.80;100.00
42621;BME280;28252;53.336;-6.298;2023-05-19T01:17:53;102419.09;;;22.80;100.00
42621;BME280;28252;53.336;-6.298;2023-05-19T01:20:34;102417.38;;;22.79;100.00
42621;BME280;28252;53.336;-6.298;2023-05-19T01:29:20;102404.22;;;22.74;100.00
42621;BME280;28252;53.336;-6.298;2023-05-19T01:30:17;102395.09;;;22.75;100.00
42621;BME280;28252;53.336;-6.298;2023-05-19T01:31:00;102395.09;;;22.75;100.00
42621;BME280;28252;53.336;-6.298;2023-05-19T01:31:35;102398.81;;;22.74;100.00
42621;BME280;28252;53.336;-6.298;2023-05-19T01:32:12;102393.38;;;22.74;100.00
42621;BME280;28252;53.336;-6.298;2023-05-19T01:32:52;102393.38;;;22.74;100.00
42621;BME280;28252;53.336;-6.298;2023-05-19T01:33:28;102392.53;;;22.73;100.00
42621;BME280;28252;53.336;-6.298;2023-05-19T01:34:02;102389.81;;;22.73;100.00
42621;BME280;28252;53.336;-6.298;2023-05-19T01:34:41;102387.94;;;22.74;100.00
42621;BME280;28252;53.336;-6.298;2023-05-19T01:35:16;102381.66;;;22.73;100.00
42621;BME280;28252;53.336;-6.298;2023-05-19T01:35:52;102386.22;;;22.73;100.00
42621;BME280;28252;53.336;-6.298;2023-05-19T01:36:25;102377.06;;;22.74;100.00
42621;BME280;28252;53.336;-6.298;2023-05-19T01:36:56;102377.22;;;22.72;100.00
42621;BME280;28252;53.336;-6.298;2023-05-19T01:37:33;102374.50;;;22.72;100.00
42621;BME280;28252;53.336;-6.298;2023-05-19T01:38:09;102377.06;;;22.74;100.00
42621;BME280;28252;53.336;-6.298;2023-05-19T01:38:42;102379.94;;;22.72;100.00
42621;BME280;28252;53.336;-6.298;2023-05-19T01:39:23;102380.78;;;22.73;100.00
42621;BME280;28252;53.336;-6.298;2023-05-19T01:39:57;102383.50;;;22.73;100.00
42621;BME280;28252;53.336;-6.298;2023-05-19T01:40:31;102384.50;;;22.72;100.00
42621;BME280;28252;53.336;-6.298;2023-05-19T01:41:07;102384.50;;;22.72;100.00
42621;BME280;28252;53.336;-6.298;2023-05-19T01:41:41;102389.09;;;22.71;100.00
42621;BME280;28252;53.336;-6.298;2023-05-19T01:42:15;102383.66;;;22.71;100.00
42621;BME280;28252;53.336;-6.298;2023-05-19T01:42:51;102387.22;;;22.72;100.00
42621;BME280;28252;53.336;-6.298;2023-05-19T01:43:29;102382.78;;;22.71;100.00
42621;BME280;28252;53.336;-6.298;2023-05-19T01:44:03;102387.38;;;22.70;100.00
42621;BME280;28252;53.336;-6.298;2023-05-19T01:44:39;102384.66;;;22.70;100.00
42621;BME280;28252;53.336;-6.298;2023-05-19T01:45:11;102383.66;;;22.71;100.00
42621;BME280;28252;53.336;-6.298;2023-05-19T01:45:45;102386.53;;;22.70;100.00
42621;BME280;28252;53.336;-6.298;2023-05-19T01:46:16;102381.94;;;22.70;100.00
42621;BME280;28252;53.336;-6.298;2023-05-19T01:46:52;102379.22;;;22.70;100.00
42621;BME280;28252;53.336;-6.298;2023-05-19T01:47:29;102386.53;;;22.70;100.00
42621;BME280;28252;53.336;-6.298;2023-05-19T01:48:08;102381.09;;;22.70;100.00
42621;BME280;28252;53.336;-6.298;2023-05-19T01:48:41;102381.94;;;22.70;100.00
42621;BME280;28252;53.336;-6.298;2023-05-19T01:49:17;102391.97;;;22.70;100.00
42621;BME280;28252;53.336;-6.298;2023-05-19T01:49:50;102380.22;;;22.69;100.00
42621;BME280;28252;53.336;-6.298;2023-05-19T01:50:24;102389.25;;;22.70;100.00
42621;BME280;28252;53.336;-6.298;2023-05-19T01:50:57;102390.22;;;22.69;100.00
42621;BME280;28252;53.336;-6.298;2023-05-19T01:51:31;102390.22;;;22.69;100.00
42621;BME280;28252;53.336;-6.298;2023-05-19T01:52:09;102382.09;;;22.69;100.00
42621;BME280;28252;53.336;-6.298;2023-05-19T01:52:40;102382.09;;;22.69;100.00
42621;BME280;28252;53.336;-6.298;2023-05-19T01:53:19;102389.38;;;22.68;100.00
42621;BME280;28252;53.336;-6.298;2023-05-19T01:53:55;102384.81;;;22.69;100.00
42621;BME280;28252;53.336;-6.298;2023-05-19T01:54:26;102388.50;;;22.68;100.00
42621;BME280;28252;53.336;-6.298;2023-05-19T01:54:57;102385.78;;;22.68;100.00
42621;BME280;28252;53.336;-6.298;2023-05-19T01:55:35;102389.38;;;22.68;100.00
42621;BME280;28252;53.336;-6.298;2023-05-19T01:56:14;102389.53;;;22.67;100.00
42621;BME280;28252;53.336;-6.298;2023-05-19T01:57:34;102390.38;;;22.67;100.00
42621;BME280;28252;53.336;-6.298;2023-05-19T01:58:59;102396.84;;;22.66;100.00
42621;BME280;28252;53.336;-6.298;2023-05-19T02:01:35;102397.69;;;22.67;100.00
42621;BME280;28252;53.336;-6.298;2023-05-19T02:04:47;102404.25;;;22.64;100.00
42621;BME280;28252;53.336;-6.298;2023-05-19T02:05:30;102405.25;;;22.63;100.00
42621;BME280;28252;53.336;-6.298;2023-05-19T02:07:08;102405.25;;;22.63;100.00
42621;BME280;28252;53.336;-6.298;2023-05-19T02:07:47;102398.94;;;22.63;100.00
42621;BME280;28252;53.336;-6.298;2023-05-19T02:13:05;102400.13;;;22.60;100.00
42621;BME280;28252;53.336;-6.298;2023-05-19T02:13:42;102403.69;;;22.61;100.00
42621;BME280;28252;53.336;-6.298;2023-05-19T02:14:17;102402.97;;;22.59;100.00
42621;BME280;28252;53.336;-6.298;2023-05-19T02:15:13;102405.69;;;22.59;100.00
42621;BME280;28252;53.336;-6.298;2023-05-19T02:15:50;102400.25;;;22.59;100.00
42621;BME280;28252;53.336;-6.298;2023-05-19T02:16:27;102405.69;;;22.59;100.00
42621;BME280;28252;53.336;-6.298;2023-05-19T02:17:03;102400.25;;;22.59;100.00
42621;BME280;28252;53.336;-6.298;2023-05-19T02:17:43;102404.84;;;22.58;100.00
42621;BME280;28252;53.336;-6.298;2023-05-19T02:18:21;102402.13;;;22.58;100.00
42621;BME280;28252;53.336;-6.298;2023-05-19T02:18:59;102403.97;;;22.57;100.00
42621;BME280;28252;53.336;-6.298;2023-05-19T02:19:36;102397.69;;;22.57;100.00
42621;BME280;28252;53.336;-6.298;2023-05-19T02:20:18;102396.84;;;22.56;100.00
42621;BME280;28252;53.336;-6.298;2023-05-19T02:20:51;102406.84;;;22.56;100.00
42621;BME280;28252;53.336;-6.298;2023-05-19T02:21:28;102401.41;;;22.56;100.00
42621;BME280;28252;53.336;-6.298;2023-05-19T02:22:01;102404.13;;;22.56;100.00
42621;BME280;28252;53.336;-6.298;2023-05-19T02:22:35;102413.13;;;22.56;100.00
42621;BME280;28252;53.336;-6.298;2023-05-19T02:23:08;102406.84;;;22.56;100.00
42621;BME280;28252;53.336;-6.298;2023-05-19T02:23:41;102413.13;;;22.56;100.00
42621;BME280;28252;53.336;-6.298;2023-05-19T02:24:14;102412.09;;;22.57;100.00
42621;BME280;28252;53.336;-6.298;2023-05-19T02:32:08;102418.84;;;22.53;100.00
42621;BME280;28252;53.336;-6.298;2023-05-19T02:32:39;102410.00;;;22.51;100.00
42621;BME280;28252;53.336;-6.298;2023-05-19T02:33:10;102410.84;;;22.52;100.00
42621;BME280;28252;53.336;-6.298;2023-05-19T02:33:45;102418.97;;;22.52;100.00
42621;BME280;28252;53.336;-6.298;2023-05-19T02:34:20;102410.00;;;22.51;100.00
42621;BME280;28252;53.336;-6.298;2023-05-19T02:34:52;102414.56;;;22.51;100.00
42621;BME280;28252;53.336;-6.298;2023-05-19T02:35:31;102414.56;;;22.51;100.00
42621;BME280;28252;53.336;-6.298;2023-05-19T02:36:03;102416.25;;;22.52;100.00
42621;BME280;28252;53.336;-6.298;2023-05-19T02:36:39;102411.84;;;22.51;100.00
42621;BME280;28252;53.336;-6.298;2023-05-19T02:37:14;102408.25;;;22.50;100.00
42621;BME280;28252;53.336;-6.298;2023-05-19T02:37:47;102410.97;;;22.50;100.00
42621;BME280;28252;53.336;-6.298;2023-05-19T02:38:20;102414.56;;;22.51;100.00
42621;BME280;28252;53.336;-6.298;2023-05-19T02:38:55;102410.97;;;22.50;100.00
42621;BME280;28252;53.336;-6.298;2023-05-19T02:39:30;102411.84;;;22.51;100.00
42621;BME280;28252;53.336;-6.298;2023-05-19T02:40:05;102412.00;;;22.49;100.00
42621;BME280;28252;53.336;-6.298;2023-05-19T02:40:38;102408.25;;;22.50;100.00
42621;BME280;28252;53.336;-6.298;2023-05-19T02:41:09;102412.00;;;22.49;100.00
42621;BME280;28252;53.336;-6.298;2023-05-19T02:41:45;102407.41;;;22.50;100.00
42621;BME280;28252;53.336;-6.298;2023-05-19T02:42:16;102408.25;;;22.50;100.00
42621;BME280;28252;53.336;-6.298;2023-05-19T02:42:50;102410.13;;;22.50;100.00
42621;BME280;28252;53.336;-6.298;2023-05-19T02:43:23;102418.28;;;22.50;100.00
42621;BME280;28252;53.336;-6.298;2023-05-19T02:43:54;102412.84;;;22.50;100.00
42621;BME280;28252;53.336;-6.298;2023-05-19T02:44:25;102412.00;;;22.49;100.00
42621;BME280;28252;53.336;-6.298;2023-05-19T02:44:56;102414.72;;;22.49;100.00
42621;BME280;28252;53.336;-6.298;2023-05-19T02:45:30;102412.00;;;22.49;100.00
42621;BME280;28252;53.336;-6.298;2023-05-19T02:46:05;102411.13;;;22.49;100.00
42621;BME280;28252;53.336;-6.298;2023-05-19T02:46:38;102412.84;;;22.50;100.00
42621;BME280;28252;53.336;-6.298;2023-05-19T02:47:17;102414.72;;;22.49;100.00
42621;BME280;28252;53.336;-6.298;2023-05-19T02:47:50;102411.13;;;22.49;100.00
42621;BME280;28252;53.336;-6.298;2023-05-19T02:48:23;102420.16;;;22.49;100.00
42621;BME280;28252;53.336;-6.298;2023-05-19T02:48:54;102411.13;;;22.49;100.00
42621;BME280;28252;53.336;-6.298;2023-05-19T02:49:26;102425.56;;;22.49;100.00
42621;BME280;28252;53.336;-6.298;2023-05-19T02:50:00;102417.44;;;22.49;100.00
42621;BME280;28252;53.336;-6.298;2023-05-19T02:50:34;102417.44;;;22.49;100.00
42621;BME280;28252;53.336;-6.298;2023-05-19T02:51:09;102422.84;;;22.49;100.00
42621;BME280;28252;53.336;-6.298;2023-05-19T02:51:42;102423.84;;;22.48;100.00
42621;BME280;28252;53.336;-6.298;2023-05-19T02:52:13;102417.44;;;22.49;100.00
42621;BME280;28252;53.336;-6.298;2023-05-19T02:52:47;102413.97;;;22.47;100.00
42621;BME280;28252;53.336;-6.298;2023-05-19T02:53:25;102421.13;;;22.48;100.00
42621;BME280;28252;53.336;-6.298;2023-05-19T02:53:59;102414.84;;;22.48;100.00
42621;BME280;28252;53.336;-6.298;2023-05-19T02:54:30;102411.25;;;22.47;100.00
42621;BME280;28252;53.336;-6.298;2023-05-19T02:55:02;102431.16;;;22.48;100.00
42621;BME280;28252;53.336;-6.298;2023-05-19T02:55:33;102413.97;;;22.47;100.00
42621;BME280;28252;53.336;-6.298;2023-05-19T02:56:07;102413.97;;;22.47;100.00
42621;BME280;28252;53.336;-6.298;2023-05-19T02:56:43;102415.69;;;22.48;100.00
42621;BME280;28252;53.336;-6.298;2023-05-19T02:57:14;102419.41;;;22.47;100.00
42621;BME280;28252;53.336;-6.298;2023-05-19T02:57:47;102417.56;;;22.48;100.00
42621;BME280;28252;53.336;-6.298;2023-05-19T02:58:19;102424.84;;;22.47;100.00
42621;BME280;28252;53.336;-6.298;2023-05-19T02:58:55;102424.84;;;22.47;100.00
42621;BME280;28252;53.336;-6.298;2023-05-19T02:59:33;102415.00;;;22.46;100.00
42621;BME280;28252;53.336;-6.298;2023-05-19T03:00:04;102415.84;;;22.47;100.00
42621;BME280;28252;53.336;-6.298;2023-05-19T03:01:39;102423.13;;;22.46;100.00
42621;BME280;28252;53.336;-6.298;2023-05-19T03:02:14;102413.28;;;22.45;100.00
42621;BME280;28252;53.336;-6.298;2023-05-19T03:02:47;102423.13;;;22.46;100.00
42621;BME280;28252;53.336;-6.298;2023-05-19T03:03:23;102421.41;;;22.45;100.00
42621;BME280;28252;53.336;-6.298;2023-05-19T03:03:54;102426.84;;;22.45;100.00
42621;BME280;28252;53.336;-6.298;2023-05-19T03:04:30;102421.41;;;22.45;100.00
42621;BME280;28252;53.336;-6.298;2023-05-19T03:05:01;102422.44;;;22.44;100.00
42621;BME280;28252;53.336;-6.298;2023-05-19T03:05:33;102421.41;;;22.45;100.00
42621;BME280;28252;53.336;-6.298;2023-05-19T03:06:11;102421.41;;;22.45;100.00
42621;BME280;28252;53.336;-6.298;2023-05-19T03:06:47;102419.72;;;22.44;100.00
42621;BME280;28252;53.336;-6.298;2023-05-19T03:07:23;102419.72;;;22.44;100.00
42621;BME280;28252;53.336;-6.298;2023-05-19T03:07:54;102421.56;;;22.44;100.00
42621;BME280;28252;53.336;-6.298;2023-05-19T03:08:28;102417.00;;;22.44;100.00
42621;BME280;28252;53.336;-6.298;2023-05-19T03:09:02;102418.00;;;22.43;100.00
42621;BME280;28252;53.336;-6.298;2023-05-19T03:09:38;102415.28;;;22.43;100.00
42621;BME280;28252;53.336;-6.298;2023-05-19T03:10:11;102413.41;;;22.44;100.00
42621;BME280;28252;53.336;-6.298;2023-05-19T03:10:44;102423.41;;;22.43;100.00
42621;BME280;28252;53.336;-6.298;2023-05-19T03:11:23;102417.00;;;22.44;100.00
42621;BME280;28252;53.336;-6.298;2023-05-19T03:11:54;102417.13;;;22.43;100.00
42621;BME280;28252;53.336;-6.298;2023-05-19T03:12:29;102422.56;;;22.43;100.00
42621;BME280;28252;53.336;-6.298;2023-05-19T03:13:06;102434.28;;;22.43;100.00
42621;BME280;28252;53.336;-6.298;2023-05-19T03:13:37;102427.13;;;22.42;100.00
42621;BME280;28252;53.336;-6.298;2023-05-19T03:14:13;102429.00;;;22.42;100.00
42621;BME280;28252;53.336;-6.298;2023-05-19T03:14:44;102428.00;;;22.43;100.00
42621;BME280;28252;53.336;-6.298;2023-05-19T03:15:17;102427.13;;;22.42;100.00
42621;BME280;28252;53.336;-6.298;2023-05-19T03:15:53;102432.56;;;22.42;100.00
42621;BME280;28252;53.336;-6.298;2023-05-19T03:16:27;102430.84;;;22.41;100.00
42621;BME280;28252;53.336;-6.298;2023-05-19T03:17:01;102430.84;;;22.41;100.00
42621;BME280;28252;53.336;-6.298;2023-05-19T03:17:39;102428.16;;;22.41;100.00
42621;BME280;28252;53.336;-6.298;2023-05-19T03:18:12;102425.44;;;22.41;100.00
42621;BME280;28252;53.336;-6.298;2023-05-19T03:18:45;102426.28;;;22.42;100.00
42621;BME280;28252;53.336;-6.298;2023-05-19T03:19:18;102424.53;;;22.41;100.00
42621;BME280;28252;53.336;-6.298;2023-05-19T03:19:52;102419.13;;;22.41;100.00
42621;BME280;28252;53.336;-6.298;2023-05-19T03:20:25;102430.84;;;22.41;100.00
42621;BME280;28252;53.336;-6.298;2023-05-19T03:21:00;102418.28;;;22.40;100.00
42621;BME280;28252;53.336;-6.298;2023-05-19T03:21:31;102425.56;;;22.40;100.00
42621;BME280;28252;53.336;-6.298;2023-05-19T03:22:02;102423.69;;;22.40;100.00
42621;BME280;28252;53.336;-6.298;2023-05-19T03:22:39;102423.69;;;22.40;100.00
42621;BME280;28252;53.336;-6.298;2023-05-19T03:23:20;102423.69;;;22.40;100.00
42621;BME280;28252;53.336;-6.298;2023-05-19T03:23:56;102416.56;;;22.39;100.00
42621;BME280;28252;53.336;-6.298;2023-05-19T03:24:27;102422.00;;;22.39;100.00
42621;BME280;28252;53.336;-6.298;2023-05-19T03:24:59;102427.44;;;22.39;100.00
42621;BME280;28252;53.336;-6.298;2023-05-19T03:25:38;102422.84;;;22.40;100.00
42621;BME280;28252;53.336;-6.298;2023-05-19T03:26:11;102419.44;;;22.37;100.00
42621;BME280;28252;53.336;-6.298;2023-05-19T03:26:44;102432.88;;;22.39;100.00
42621;BME280;28252;53.336;-6.298;2023-05-19T03:27:20;102425.72;;;22.38;100.00
42621;BME280;28252;53.336;-6.298;2023-05-19T03:27:54;102421.13;;;22.38;100.00
42621;BME280;28252;53.336;-6.298;2023-05-19T03:28:27;102420.28;;;22.38;100.00
42621;BME280;28252;53.336;-6.298;2023-05-19T03:29:05;102431.13;;;22.38;100.00
42621;BME280;28252;53.336;-6.298;2023-05-19T03:29:41;102425.72;;;22.38;100.00
42621;BME280;28252;53.336;-6.298;2023-05-19T03:30:14;102420.41;;;22.36;100.00
42621;BME280;28252;53.336;-6.298;2023-05-19T03:30:59;102423.00;;;22.38;100.00
42621;BME280;28252;53.336;-6.298;2023-05-19T03:31:41;102420.41;;;22.36;100.00
42621;BME280;28252;53.336;-6.298;2023-05-19T03:32:16;102416.84;;;22.36;100.00
42621;BME280;28252;53.336;-6.298;2023-05-19T03:32:50;102423.97;;;22.37;100.00
42621;BME280;28252;53.336;-6.298;2023-05-19T03:33:24;102429.53;;;22.35;100.00
42621;BME280;28252;53.336;-6.298;2023-05-19T03:33:59;102426.84;;;22.35;100.00
42621;BME280;28252;53.336;-6.298;2023-05-19T03:34:33;102425.00;;;22.36;100.00
42621;BME280;28252;53.336;-6.298;2023-05-19T03:35:05;102423.28;;;22.35;100.00
42621;BME280;28252;53.336;-6.298;2023-05-19T03:39:40;102435.28;;;22.32;100.00
42621;BME280;28252;53.336;-6.298;2023-05-19T03:40:14;102434.41;;;22.32;100.00
42621;BME280;28252;53.336;-6.298;2023-05-19T03:40:49;102436.28;;;22.31;100.00
42621;BME280;28252;53.336;-6.298;2023-05-19T03:41:25;102444.41;;;22.31;100.00
42621;BME280;28252;53.336;-6.298;2023-05-19T03:41:56;102437.13;;;22.32;100.00
42621;BME280;28252;53.336;-6.298;2023-05-19T03:42:30;102439.13;;;22.30;100.00
42621;BME280;28252;53.336;-6.298;2023-05-19T03:43:06;102441.72;;;22.31;100.00
42621;BME280;28252;53.336;-6.298;2023-05-19T03:43:48;102440.84;;;22.31;100.00